sensor_id;sensor_type;location;lat;lon;timestamp;temperature;humidity
152;DHT22;68;48.792;9.164;2023-09-18T00:00:53;22.80;80.20
152;DHT22;68;48.792;9.164;2023-09-18T00:03:21;22.70;81.00
152;DHT22;68;48.792;9.164;2023-09-18T00:05:50;22.80;80.60
152;DHT22;68;48.792;9.164;2023-09-18T00:08:17;22.70;80.80
152;DHT22;68;48.792;9.164;2023-09-18T00:10:46;22.40;81.50
152;DHT22;68;48.792;9.164;2023-09-18T00:13:15;22.00;82.30
152;DHT22;68;48.792;9.164;2023-09-18T00:15:42;22.00;82.90
152;DHT22;68;48.792;9.164;2023-09-18T00:18:10;22.30;82.90
152;DHT22;68;48.792;9.164;2023-09-18T00:20:37;22.30;82.10
152;DHT22;68;48.792;9.164;2023-09-18T00:23:04;22.20;82.70
152;DHT22;68;48.792;9.164;2023-09-18T00:25:30;22.50;81.70
152;DHT22;68;48.792;9.164;2023-09-18T00:27:57;22.60;81.10
152;DHT22;68;48.792;9.164;2023-09-18T00:30:25;22.70;81.30
152;DHT22;68;48.792;9.164;2023-09-18T00:32:52;22.80;80.20
152;DHT22;68;48.792;9.164;2023-09-18T00:35:19;22.80;80.20
152;DHT22;68;48.792;9.164;2023-09-18T00:37:45;23.00;79.80
152;DHT22;68;48.792;9.164;2023-09-18T00:40:12;23.20;78.90
152;DHT22;68;48.792;9.164;2023-09-18T00:42:39;23.20;78.80
152;DHT22;68;48.792;9.164;2023-09-18T00:45:07;23.30;78.80
152;DHT22;68;48.792;9.164;2023-09-18T00:47:36;23.30;78.50
152;DHT22;68;48.792;9.164;2023-09-18T00:50:04;23.30;79.00
152;DHT22;68;48.792;9.164;2023-09-18T00:52:33;23.00;79.50
152;DHT22;68;48.792;9.164;2023-09-18T00:55:00;22.90;79.80
152;DHT22;68;48.792;9.164;2023-09-18T00:57:28;22.70;80.30
152;DHT22;68;48.792;9.164;2023-09-18T00:59:55;23.00;80.00
152;DHT22;68;48.792;9.164;2023-09-18T01:02:22;23.00;79.90
152;DHT22;68;48.792;9.164;2023-09-18T01:04:50;23.00;80.20
152;DHT22;68;48.792;9.164;2023-09-18T01:07:16;23.00;79.50
152;DHT22;68;48.792;9.164;2023-09-18T01:09:43;23.20;79.90
152;DHT22;68;48.792;9.164;2023-09-18T01:12:15;23.30;79.20
152;DHT22;68;48.792;9.164;2023-09-18T01:14:50;23.40;78.90
152;DHT22;68;48.792;9.164;2023-09-18T01:17:22;23.40;79.60
152;DHT22;68;48.792;9.164;2023-09-18T01:19:51;23.50;79.80
152;DHT22;68;48.792;9.164;2023-09-18T01:22:19;23.30;79.70
152;DHT22;68;48.792;9.164;2023-09-18T01:24:48;23.40;79.20
152;DHT22;68;48.792;9.164;2023-09-18T01:27:16;23.40;79.00
152;DHT22;68;48.792;9.164;2023-09-18T01:29:43;23.50;78.60
152;DHT22;68;48.792;9.164;2023-09-18T01:32:10;23.30;78.60
152;DHT22;68;48.792;9.164;2023-09-18T01:34:38;23.00;78.60
152;DHT22;68;48.792;9.164;2023-09-18T01:37:07;22.90;80.50
152;DHT22;68;48.792;9.164;2023-09-18T01:39:36;23.00;79.70
152;DHT22;68;48.792;9.164;2023-09-18T01:42:05;23.30;78.60
152;DHT22;68;48.792;9.164;2023-09-18T01:44:35;23.50;78.10
152;DHT22;68;48.792;9.164;2023-09-18T01:47:04;23.60;77.80
152;DHT22;68;48.792;9.164;2023-09-18T01:49:33;23.70;77.90
152;DHT22;68;48.792;9.164;2023-09-18T01:52:01;23.50;78.60
152;DHT22;68;48.792;9.164;2023-09-18T01:54:28;23.50;78.10
152;DHT22;68;48.792;9.164;2023-09-18T01:56:55;23.50;78.10
152;DHT22;68;48.792;9.164;2023-09-18T01:59:24;23.30;79.60
152;DHT22;68;48.792;9.164;2023-09-18T02:01:51;23.20;77.30
152;DHT22;68;48.792;9.164;2023-09-18T02:04:19;23.30;76.90
152;DHT22;68;48.792;9.164;2023-09-18T02:06:47;23.40;77.10
152;DHT22;68;48.792;9.164;2023-09-18T02:09:14;23.60;78.20
152;DHT22;68;48.792;9.164;2023-09-18T02:11:43;23.70;80.00
152;DHT22;68;48.792;9.164;2023-09-18T02:14:10;23.60;81.40
152;DHT22;68;48.792;9.164;2023-09-18T02:16:40;23.50;80.90
152;DHT22;68;48.792;9.164;2023-09-18T02:19:09;23.40;82.10
152;DHT22;68;48.792;9.164;2023-09-18T02:21:36;23.20;80.80
152;DHT22;68;48.792;9.164;2023-09-18T02:24:03;23.30;83.00
152;DHT22;68;48.792;9.164;2023-09-18T02:26:30;23.30;84.30
152;DHT22;68;48.792;9.164;2023-09-18T02:28:59;22.90;83.60
152;DHT22;68;48.792;9.164;2023-09-18T02:31:26;22.90;85.80
152;DHT22;68;48.792;9.164;2023-09-18T02:33:55;22.90;85.20
152;DHT22;68;48.792;9.164;2023-09-18T02:36:22;22.90;85.10
152;DHT22;68;48.792;9.164;2023-09-18T02:38:48;23.10;84.90
152;DHT22;68;48.792;9.164;2023-09-18T02:41:15;23.10;85.30
152;DHT22;68;48.792;9.164;2023-09-18T02:43:42;23.10;85.40
152;DHT22;68;48.792;9.164;2023-09-18T02:46:09;23.00;85.90
152;DHT22;68;48.792;9.164;2023-09-18T02:48:35;22.80;84.70
152;DHT22;68;48.792;9.164;2023-09-18T02:51:04;22.90;83.40
152;DHT22;68;48.792;9.164;2023-09-18T02:53:31;22.80;82.50
152;DHT22;68;48.792;9.164;2023-09-18T02:55:59;22.80;82.90
152;DHT22;68;48.792;9.164;2023-09-18T02:58:26;22.80;81.80
152;DHT22;68;48.792;9.164;2023-09-18T03:00:56;22.50;82.80
152;DHT22;68;48.792;9.164;2023-09-18T03:03:23;22.40;83.70
152;DHT22;68;48.792;9.164;2023-09-18T03:05:50;22.60;83.10
152;DHT22;68;48.792;9.164;2023-09-18T03:08:18;22.50;83.90
152;DHT22;68;48.792;9.164;2023-09-18T03:10:45;22.50;82.70
152;DHT22;68;48.792;9.164;2023-09-18T03:13:14;22.50;82.50
152;DHT22;68;48.792;9.164;2023-09-18T03:15:44;22.00;83.60
152;DHT22;68;48.792;9.164;2023-09-18T03:18:11;21.80;85.70
152;DHT22;68;48.792;9.164;2023-09-18T03:20:38;22.00;85.00
152;DHT22;68;48.792;9.164;2023-09-18T03:23:05;22.30;84.00
152;DHT22;68;48.792;9.164;2023-09-18T03:25:33;22.60;82.70
152;DHT22;68;48.792;9.164;2023-09-18T03:28:00;22.70;82.30
152;DHT22;68;48.792;9.164;2023-09-18T03:30:26;22.90;81.50
152;DHT22;68;48.792;9.164;2023-09-18T03:32:53;22.70;81.50
152;DHT22;68;48.792;9.164;2023-09-18T03:35:20;22.40;81.80
152;DHT22;68;48.792;9.164;2023-09-18T03:37:48;22.30;82.60
152;DHT22;68;48.792;9.164;2023-09-18T03:40:15;22.50;82.20
152;DHT22;68;48.792;9.164;2023-09-18T03:42:43;22.60;81.30
152;DHT22;68;48.792;9.164;2023-09-18T03:45:10;22.60;80.90
152;DHT22;68;48.792;9.164;2023-09-18T03:47:38;22.70;81.40
152;DHT22;68;48.792;9.164;2023-09-18T03:50:06;22.80;81.50
152;DHT22;68;48.792;9.164;2023-09-18T03:52:33;22.80;81.50
152;DHT22;68;48.792;9.164;2023-09-18T03:55:00;22.80;81.70
152;DHT22;68;48.792;9.164;2023-09-18T03:57:27;22.80;81.80
152;DHT22;68;48.792;9.164;2023-09-18T03:59:55;22.80;82.30
152;DHT22;68;48.792;9.164;2023-09-18T04:02:24;22.80;82.60
152;DHT22;68;48.792;9.164;2023-09-18T04:04:52;22.80;82.30
152;DHT22;68;48.792;9.164;2023-09-18T04:07:19;22.80;82.00
152;DHT22;68;48.792;9.164;2023-09-18T04:09:47;22.90;81.60
152;DHT22;68;48.792;9.164;2023-09-18T04:12:13;22.80;81.30
152;DHT22;68;48.792;9.164;2023-09-18T04:14:41;22.80;81.70
152;DHT22;68;48.792;9.164;2023-09-18T04:17:09;22.80;81.20
152;DHT22;68;48.792;9.164;2023-09-18T04:19:36;22.80;81.40
152;DHT22;68;48.792;9.164;2023-09-18T04:22:03;22.80;81.40
152;DHT22;68;48.792;9.164;2023-09-18T04:24:30;22.60;83.40
152;DHT22;68;48.792;9.164;2023-09-18T04:26:57;22.50;83.50
152;DHT22;68;48.792;9.164;2023-09-18T04:29:23;22.50;84.30
152;DHT22;68;48.792;9.164;2023-09-18T04:31:50;22.50;85.10
152;DHT22;68;48.792;9.164;2023-09-18T04:34:20;22.50;84.70
152;DHT22;68;48.792;9.164;2023-09-18T04:36:47;22.50;84.60
152;DHT22;68;48.792;9.164;2023-09-18T04:39:14;22.50;85.30
152;DHT22;68;48.792;9.164;2023-09-18T04:41:41;22.50;85.40
152;DHT22;68;48.792;9.164;2023-09-18T04:44:08;22.50;85.40
152;DHT22;68;48.792;9.164;2023-09-18T04:46:38;22.30;84.50
152;DHT22;68;48.792;9.164;2023-09-18T04:49:04;22.40;84.90
152;DHT22;68;48.792;9.164;2023-09-18T04:51:33;22.40;85.90
152;DHT22;68;48.792;9.164;2023-09-18T04:54:00;22.40;86.10
152;DHT22;68;48.792;9.164;2023-09-18T04:56:27;22.30;86.00
152;DHT22;68;48.792;9.164;2023-09-18T04:58:54;22.30;85.90
152;DHT22;68;48.792;9.164;2023-09-18T05:01:21;22.40;86.20
152;DHT22;68;48.792;9.164;2023-09-18T05:03:47;22.30;86.50
152;DHT22;68;48.792;9.164;2023-09-18T05:06:15;22.30;86.40
152;DHT22;68;48.792;9.164;2023-09-18T05:08:43;22.40;86.40
152;DHT22;68;48.792;9.164;2023-09-18T05:11:10;22.30;85.90
152;DHT22;68;48.792;9.164;2023-09-18T05:13:37;22.30;86.90
152;DHT22;68;48.792;9.164;2023-09-18T05:16:04;22.30;87.10
152;DHT22;68;48.792;9.164;2023-09-18T05:18:31;22.40;86.50
152;DHT22;68;48.792;9.164;2023-09-18T05:20:58;22.30;86.20
152;DHT22;68;48.792;9.164;2023-09-18T05:23:24;22.40;86.00
152;DHT22;68;48.792;9.164;2023-09-18T05:25:52;22.40;86.00
152;DHT22;68;48.792;9.164;2023-09-18T05:28:19;22.40;86.50
152;DHT22;68;48.792;9.164;2023-09-18T05:30:46;22.40;86.40
152;DHT22;68;48.792;9.164;2023-09-18T05:33:13;22.40;86.90
152;DHT22;68;48.792;9.164;2023-09-18T05:35:41;22.30;87.50
152;DHT22;68;48.792;9.164;2023-09-18T05:38:08;22.20;87.40
152;DHT22;68;48.792;9.164;2023-09-18T05:40:36;22.20;87.30
152;DHT22;68;48.792;9.164;2023-09-18T05:43:05;22.30;87.00
152;DHT22;68;48.792;9.164;2023-09-18T05:45:32;22.30;87.10
152;DHT22;68;48.792;9.164;2023-09-18T05:47:59;22.30;87.30
152;DHT22;68;48.792;9.164;2023-09-18T05:50:29;22.30;87.30
152;DHT22;68;48.792;9.164;2023-09-18T05:52:57;22.30;86.60
152;DHT22;68;48.792;9.164;2023-09-18T05:55:25;22.30;86.70
152;DHT22;68;48.792;9.164;2023-09-18T05:57:52;22.30;86.80
152;DHT22;68;48.792;9.164;2023-09-18T06:00:20;22.30;86.80
152;DHT22;68;48.792;9.164;2023-09-18T06:02:47;22.30;86.30
152;DHT22;68;48.792;9.164;2023-09-18T06:05:14;22.30;86.40
152;DHT22;68;48.792;9.164;2023-09-18T06:07:42;22.20;85.80
152;DHT22;68;48.792;9.164;2023-09-18T06:10:10;22.10;85.90
152;DHT22;68;48.792;9.164;2023-09-18T06:12:38;22.20;86.10
152;DHT22;68;48.792;9.164;2023-09-18T06:15:06;22.20;86.10
152;DHT22;68;48.792;9.164;2023-09-18T06:17:37;22.30;86.90
152;DHT22;68;48.792;9.164;2023-09-18T06:20:05;22.20;87.30
152;DHT22;68;48.792;9.164;2023-09-18T06:22:35;22.10;87.70
152;DHT22;68;48.792;9.164;2023-09-18T06:25:02;22.00;87.50
152;DHT22;68;48.792;9.164;2023-09-18T06:27:29;22.10;88.10
152;DHT22;68;48.792;9.164;2023-09-18T06:29:57;22.10;88.40
152;DHT22;68;48.792;9.164;2023-09-18T06:32:24;22.00;88.90
152;DHT22;68;48.792;9.164;2023-09-18T06:34:52;21.90;88.50
152;DHT22;68;48.792;9.164;2023-09-18T06:37:18;21.90;88.80
152;DHT22;68;48.792;9.164;2023-09-18T06:39:45;21.90;89.60
152;DHT22;68;48.792;9.164;2023-09-18T06:42:12;22.00;89.90
152;DHT22;68;48.792;9.164;2023-09-18T06:44:39;22.00;90.00
152;DHT22;68;48.792;9.164;2023-09-18T06:47:06;22.00;90.30
152;DHT22;68;48.792;9.164;2023-09-18T06:49:33;21.90;90.80
152;DHT22;68;48.792;9.164;2023-09-18T06:52:02;22.00;90.90
152;DHT22;68;48.792;9.164;2023-09-18T06:54:28;21.90;91.10
152;DHT22;68;48.792;9.164;2023-09-18T06:56:55;22.00;91.30
152;DHT22;68;48.792;9.164;2023-09-18T06:59:22;22.00;91.20
152;DHT22;68;48.792;9.164;2023-09-18T07:01:49;21.90;90.90
152;DHT22;68;48.792;9.164;2023-09-18T07:04:15;21.90;91.00
152;DHT22;68;48.792;9.164;2023-09-18T07:06:42;21.90;91.20
152;DHT22;68;48.792;9.164;2023-09-18T07:09:10;21.90;91.40
152;DHT22;68;48.792;9.164;2023-09-18T07:11:38;21.90;91.60
152;DHT22;68;48.792;9.164;2023-09-18T07:14:04;21.80;91.90
152;DHT22;68;48.792;9.164;2023-09-18T07:16:32;21.60;92.10
152;DHT22;68;48.792;9.164;2023-09-18T07:18:59;21.60;92.10
152;DHT22;68;48.792;9.164;2023-09-18T07:21:26;21.70;91.90
152;DHT22;68;48.792;9.164;2023-09-18T07:23:54;21.80;91.80
152;DHT22;68;48.792;9.164;2023-09-18T07:26:22;21.90;91.30
152;DHT22;68;48.792;9.164;2023-09-18T07:28:49;22.00;90.80
152;DHT22;68;48.792;9.164;2023-09-18T07:31:16;21.80;89.50
152;DHT22;68;48.792;9.164;2023-09-18T07:33:42;21.90;88.70
152;DHT22;68;48.792;9.164;2023-09-18T07:36:09;21.70;88.50
152;DHT22;68;48.792;9.164;2023-09-18T07:38:36;21.70;88.20
152;DHT22;68;48.792;9.164;2023-09-18T07:41:03;21.80;88.60
152;DHT22;68;48.792;9.164;2023-09-18T07:43:31;21.70;87.60
152;DHT22;68;48.792;9.164;2023-09-18T07:45:58;21.80;87.30
152;DHT22;68;48.792;9.164;2023-09-18T07:48:25;21.70;87.80
152;DHT22;68;48.792;9.164;2023-09-18T07:50:52;21.80;87.30
152;DHT22;68;48.792;9.164;2023-09-18T07:53:20;22.00;86.40
152;DHT22;68;48.792;9.164;2023-09-18T07:55:48;21.90;86.50
152;DHT22;68;48.792;9.164;2023-09-18T07:58:21;21.90;86.20
152;DHT22;68;48.792;9.164;2023-09-18T08:00:49;22.10;86.60
152;DHT22;68;48.792;9.164;2023-09-18T08:03:19;22.30;86.70
152;DHT22;68;48.792;9.164;2023-09-18T08:05:49;22.30;86.20
152;DHT22;68;48.792;9.164;2023-09-18T08:08:16;22.50;86.00
152;DHT22;68;48.792;9.164;2023-09-18T08:10:43;22.60;85.60
152;DHT22;68;48.792;9.164;2023-09-18T08:13:10;22.50;84.70
152;DHT22;68;48.792;9.164;2023-09-18T08:15:37;22.40;84.10
152;DHT22;68;48.792;9.164;2023-09-18T08:18:05;22.40;85.20
152;DHT22;68;48.792;9.164;2023-09-18T08:20:32;22.30;85.10
152;DHT22;68;48.792;9.164;2023-09-18T08:23:00;22.20;84.30
152;DHT22;68;48.792;9.164;2023-09-18T08:25:27;22.30;85.00
152;DHT22;68;48.792;9.164;2023-09-18T08:27:53;22.40;84.30
152;DHT22;68;48.792;9.164;2023-09-18T08:30:20;22.20;83.60
152;DHT22;68;48.792;9.164;2023-09-18T08:32:47;22.10;86.10
152;DHT22;68;48.792;9.164;2023-09-18T08:35:15;22.30;85.10
152;DHT22;68;48.792;9.164;2023-09-18T08:37:43;22.30;84.20
152;DHT22;68;48.792;9.164;2023-09-18T08:40:10;22.30;84.50
152;DHT22;68;48.792;9.164;2023-09-18T08:42:42;22.10;86.80
152;DHT22;68;48.792;9.164;2023-09-18T08:45:15;22.00;88.70
152;DHT22;68;48.792;9.164;2023-09-18T08:47:45;22.10;89.30
152;DHT22;68;48.792;9.164;2023-09-18T08:50:14;22.00;89.50
152;DHT22;68;48.792;9.164;2023-09-18T08:52:41;21.90;89.90
152;DHT22;68;48.792;9.164;2023-09-18T08:55:09;21.60;89.90
152;DHT22;68;48.792;9.164;2023-09-18T08:57:38;21.50;90.30
152;DHT22;68;48.792;9.164;2023-09-18T09:00:07;21.60;91.00
152;DHT22;68;48.792;9.164;2023-09-18T09:02:37;21.70;91.40
152;DHT22;68;48.792;9.164;2023-09-18T09:05:05;21.80;90.90
152;DHT22;68;48.792;9.164;2023-09-18T09:07:33;21.80;91.30
152;DHT22;68;48.792;9.164;2023-09-18T09:10:00;21.70;91.20
152;DHT22;68;48.792;9.164;2023-09-18T09:12:49;21.60;91.30
152;DHT22;68;48.792;9.164;2023-09-18T09:15:19;21.60;91.70
152;DHT22;68;48.792;9.164;2023-09-18T09:17:46;21.60;91.50
152;DHT22;68;48.792;9.164;2023-09-18T09:20:14;21.60;91.40
152;DHT22;68;48.792;9.164;2023-09-18T09:22:44;21.60;91.50
152;DHT22;68;48.792;9.164;2023-09-18T09:25:32;21.60;91.90
152;DHT22;68;48.792;9.164;2023-09-18T09:28:00;21.60;92.10
152;DHT22;68;48.792;9.164;2023-09-18T09:30:29;21.60;92.20
152;DHT22;68;48.792;9.164;2023-09-18T09:32:57;21.60;92.20
152;DHT22;68;48.792;9.164;2023-09-18T09:35:26;21.50;92.20
152;DHT22;68;48.792;9.164;2023-09-18T09:37:59;21.50;92.10
152;DHT22;68;48.792;9.164;2023-09-18T09:40:26;21.50;92.00
152;DHT22;68;48.792;9.164;2023-09-18T09:42:55;21.60;92.00
152;DHT22;68;48.792;9.164;2023-09-18T09:45:27;21.50;92.30
152;DHT22;68;48.792;9.164;2023-09-18T09:47:55;21.40;92.30
152;DHT22;68;48.792;9.164;2023-09-18T09:50:23;21.40;92.40
152;DHT22;68;48.792;9.164;2023-09-18T09:52:52;21.40;92.30
152;DHT22;68;48.792;9.164;2023-09-18T09:55:23;21.50;92.30
152;DHT22;68;48.792;9.164;2023-09-18T09:57:52;21.40;92.40
152;DHT22;68;48.792;9.164;2023-09-18T10:00:19;21.40;92.20
152;DHT22;68;48.792;9.164;2023-09-18T10:03:00;21.50;92.20
152;DHT22;68;48.792;9.164;2023-09-18T10:05:29;21.60;92.20
152;DHT22;68;48.792;9.164;2023-09-18T10:07:58;21.60;92.20
152;DHT22;68;48.792;9.164;2023-09-18T10:10:32;21.70;92.10
152;DHT22;68;48.792;9.164;2023-09-18T10:13:03;21.70;91.90
152;DHT22;68;48.792;9.164;2023-09-18T10:15:34;21.60;91.90
152;DHT22;68;48.792;9.164;2023-09-18T10:18:05;21.70;92.10
152;DHT22;68;48.792;9.164;2023-09-18T10:20:38;21.60;92.10
152;DHT22;68;48.792;9.164;2023-09-18T10:23:13;21.60;92.20
152;DHT22;68;48.792;9.164;2023-09-18T10:25:48;21.60;92.30
152;DHT22;68;48.792;9.164;2023-09-18T10:28:16;21.50;92.30
152;DHT22;68;48.792;9.164;2023-09-18T10:30:44;21.60;92.30
152;DHT22;68;48.792;9.164;2023-09-18T10:33:11;21.50;92.20
152;DHT22;68;48.792;9.164;2023-09-18T10:35:39;21.60;92.10
152;DHT22;68;48.792;9.164;2023-09-18T10:38:06;21.60;92.00
152;DHT22;68;48.792;9.164;2023-09-18T10:40:34;21.40;91.70
152;DHT22;68;48.792;9.164;2023-09-18T10:43:04;21.30;91.50
152;DHT22;68;48.792;9.164;2023-09-18T10:45:35;21.30;91.30
152;DHT22;68;48.792;9.164;2023-09-18T10:48:05;21.20;90.70
152;DHT22;68;48.792;9.164;2023-09-18T10:50:34;21.10;90.10
152;DHT22;68;48.792;9.164;2023-09-18T10:53:02;21.20;89.80
152;DHT22;68;48.792;9.164;2023-09-18T10:55:29;21.20;89.80
152;DHT22;68;48.792;9.164;2023-09-18T10:57:59;21.30;90.80
152;DHT22;68;48.792;9.164;2023-09-18T11:00:29;21.10;89.20
152;DHT22;68;48.792;9.164;2023-09-18T11:03:10;21.10;89.90
152;DHT22;68;48.792;9.164;2023-09-18T11:05:37;21.20;90.70
152;DHT22;68;48.792;9.164;2023-09-18T11:08:29;21.30;91.30
152;DHT22;68;48.792;9.164;2023-09-18T11:10:59;21.30;91.00
152;DHT22;68;48.792;9.164;2023-09-18T11:13:31;21.30;91.20
152;DHT22;68;48.792;9.164;2023-09-18T11:16:16;21.10;91.10
152;DHT22;68;48.792;9.164;2023-09-18T11:18:47;21.10;91.60
152;DHT22;68;48.792;9.164;2023-09-18T11:21:15;21.10;91.70
152;DHT22;68;48.792;9.164;2023-09-18T11:23:43;21.20;91.70
152;DHT22;68;48.792;9.164;2023-09-18T11:26:10;21.10;91.50
152;DHT22;68;48.792;9.164;2023-09-18T11:28:38;21.10;91.60
152;DHT22;68;48.792;9.164;2023-09-18T11:31:05;21.00;91.60
152;DHT22;68;48.792;9.164;2023-09-18T11:33:35;20.90;91.80
152;DHT22;68;48.792;9.164;2023-09-18T11:36:05;20.90;91.40
152;DHT22;68;48.792;9.164;2023-09-18T11:38:34;20.90;91.10
152;DHT22;68;48.792;9.164;2023-09-18T11:41:19;21.00;91.70
152;DHT22;68;48.792;9.164;2023-09-18T11:43:46;21.00;92.00
152;DHT22;68;48.792;9.164;2023-09-18T11:46:18;20.90;92.00
152;DHT22;68;48.792;9.164;2023-09-18T11:48:47;21.00;92.20
152;DHT22;68;48.792;9.164;2023-09-18T11:51:21;21.00;92.00
152;DHT22;68;48.792;9.164;2023-09-18T11:53:51;21.10;92.50
152;DHT22;68;48.792;9.164;2023-09-18T11:56:18;21.20;92.10
152;DHT22;68;48.792;9.164;2023-09-18T11:58:46;21.30;92.20
152;DHT22;68;48.792;9.164;2023-09-18T12:01:13;21.30;92.50
152;DHT22;68;48.792;9.164;2023-09-18T12:03:41;21.30;92.50
152;DHT22;68;48.792;9.164;2023-09-18T12:06:09;21.40;92.50
152;DHT22;68;48.792;9.164;2023-09-18T12:08:38;21.20;92.40
152;DHT22;68;48.792;9.164;2023-09-18T12:11:06;21.20;92.40
152;DHT22;68;48.792;9.164;2023-09-18T12:13:34;21.30;92.60
152;DHT22;68;48.792;9.164;2023-09-18T12:16:02;21.30;92.50
152;DHT22;68;48.792;9.164;2023-09-18T12:18:31;21.40;92.40
152;DHT22;68;48.792;9.164;2023-09-18T12:21:02;21.60;92.40
152;DHT22;68;48.792;9.164;2023-09-18T12:23:38;21.60;92.40
152;DHT22;68;48.792;9.164;2023-09-18T12:26:05;21.40;92.30
152;DHT22;68;48.792;9.164;2023-09-18T12:28:33;21.40;92.40
152;DHT22;68;48.792;9.164;2023-09-18T12:31:01;21.40;92.40
152;DHT22;68;48.792;9.164;2023-09-18T12:33:34;21.40;92.50
152;DHT22;68;48.792;9.164;2023-09-18T12:36:02;21.50;92.40
152;DHT22;68;48.792;9.164;2023-09-18T12:38:30;21.40;92.50
152;DHT22;68;48.792;9.164;2023-09-18T12:40:59;21.30;92.30
152;DHT22;68;48.792;9.164;2023-09-18T12:43:34;21.50;92.40
152;DHT22;68;48.792;9.164;2023-09-18T12:46:02;21.60;92.30
152;DHT22;68;48.792;9.164;2023-09-18T12:48:29;21.80;92.30
152;DHT22;68;48.792;9.164;2023-09-18T12:51:02;21.90;92.10
152;DHT22;68;48.792;9.164;2023-09-18T12:53:30;22.20;91.60
152;DHT22;68;48.792;9.164;2023-09-18T12:56:06;22.40;91.00
152;DHT22;68;48.792;9.164;2023-09-18T12:58:33;22.40;90.60
152;DHT22;68;48.792;9.164;2023-09-18T13:01:04;22.30;89.90
152;DHT22;68;48.792;9.164;2023-09-18T13:03:33;22.50;89.70
152;DHT22;68;48.792;9.164;2023-09-18T13:06:10;22.50;89.60
152;DHT22;68;48.792;9.164;2023-09-18T13:08:38;22.60;89.40
152;DHT22;68;48.792;9.164;2023-09-18T13:11:06;22.40;88.70
152;DHT22;68;48.792;9.164;2023-09-18T13:13:33;22.40;89.60
152;DHT22;68;48.792;9.164;2023-09-18T13:16:00;22.50;88.80
152;DHT22;68;48.792;9.164;2023-09-18T13:18:29;22.50;88.30
152;DHT22;68;48.792;9.164;2023-09-18T13:20:57;22.40;87.90
152;DHT22;68;48.792;9.164;2023-09-18T13:23:28;22.70;87.70
152;DHT22;68;48.792;9.164;2023-09-18T13:25:59;22.80;88.80
152;DHT22;68;48.792;9.164;2023-09-18T13:28:28;22.70;88.10
152;DHT22;68;48.792;9.164;2023-09-18T13:30:56;22.70;88.10
152;DHT22;68;48.792;9.164;2023-09-18T13:33:23;22.50;88.20
152;DHT22;68;48.792;9.164;2023-09-18T13:35:51;22.60;87.40
152;DHT22;68;48.792;9.164;2023-09-18T13:38:22;22.80;86.80
152;DHT22;68;48.792;9.164;2023-09-18T13:40:49;22.80;84.50
152;DHT22;68;48.792;9.164;2023-09-18T13:43:16;22.80;87.10
152;DHT22;68;48.792;9.164;2023-09-18T13:45:45;23.00;86.30
152;DHT22;68;48.792;9.164;2023-09-18T13:48:12;23.10;85.40
152;DHT22;68;48.792;9.164;2023-09-18T13:50:41;23.00;85.00
152;DHT22;68;48.792;9.164;2023-09-18T13:53:07;23.10;84.10
152;DHT22;68;48.792;9.164;2023-09-18T13:55:34;23.10;84.10
152;DHT22;68;48.792;9.164;2023-09-18T13:58:02;23.10;82.70
152;DHT22;68;48.792;9.164;2023-09-18T14:00:29;23.20;82.70
152;DHT22;68;48.792;9.164;2023-09-18T14:02:58;23.30;83.30
152;DHT22;68;48.792;9.164;2023-09-18T14:05:25;23.30;82.60
152;DHT22;68;48.792;9.164;2023-09-18T14:07:52;23.30;83.80
152;DHT22;68;48.792;9.164;2023-09-18T14:10:23;23.30;83.60
152;DHT22;68;48.792;9.164;2023-09-18T14:12:49;23.30;82.50
152;DHT22;68;48.792;9.164;2023-09-18T14:15:16;23.30;81.50
152;DHT22;68;48.792;9.164;2023-09-18T14:17:44;23.30;81.30
152;DHT22;68;48.792;9.164;2023-09-18T14:20:13;23.10;82.40
152;DHT22;68;48.792;9.164;2023-09-18T14:22:43;23.10;81.60
152;DHT22;68;48.792;9.164;2023-09-18T14:25:10;23.20;81.40
152;DHT22;68;48.792;9.164;2023-09-18T14:27:37;23.30;80.70
152;DHT22;68;48.792;9.164;2023-09-18T14:30:04;23.20;80.50
152;DHT22;68;48.792;9.164;2023-09-18T14:32:32;23.20;79.90
152;DHT22;68;48.792;9.164;2023-09-18T14:34:58;23.20;80.00
152;DHT22;68;48.792;9.164;2023-09-18T14:37:28;23.10;79.70
152;DHT22;68;48.792;9.164;2023-09-18T14:39:55;23.20;79.90
152;DHT22;68;48.792;9.164;2023-09-18T14:42:22;23.10;80.90
152;DHT22;68;48.792;9.164;2023-09-18T14:44:49;23.20;80.70
152;DHT22;68;48.792;9.164;2023-09-18T14:47:15;23.30;80.70
152;DHT22;68;48.792;9.164;2023-09-18T14:49:42;23.10;79.90
152;DHT22;68;48.792;9.164;2023-09-18T14:52:11;23.00;79.60
152;DHT22;68;48.792;9.164;2023-09-18T14:54:39;23.10;79.70
152;DHT22;68;48.792;9.164;2023-09-18T14:57:07;23.10;79.90
152;DHT22;68;48.792;9.164;2023-09-18T14:59:34;23.20;79.90
152;DHT22;68;48.792;9.164;2023-09-18T15:02:01;23.20;79.90
152;DHT22;68;48.792;9.164;2023-09-18T15:04:28;23.30;79.90
152;DHT22;68;48.792;9.164;2023-09-18T15:06:55;23.20;79.10
152;DHT22;68;48.792;9.164;2023-09-18T15:09:22;23.00;80.10
152;DHT22;68;48.792;9.164;2023-09-18T15:11:50;23.00;79.70
152;DHT22;68;48.792;9.164;2023-09-18T15:14:17;23.10;80.00
152;DHT22;68;48.792;9.164;2023-09-18T15:16:44;23.10;78.90
152;DHT22;68;48.792;9.164;2023-09-18T15:19:10;23.20;79.30
152;DHT22;68;48.792;9.164;2023-09-18T15:21:39;23.10;78.90
152;DHT22;68;48.792;9.164;2023-09-18T15:24:07;23.30;79.40
152;DHT22;68;48.792;9.164;2023-09-18T15:26:33;23.20;79.40
152;DHT22;68;48.792;9.164;2023-09-18T15:29:02;23.20;79.90
152;DHT22;68;48.792;9.164;2023-09-18T15:31:28;23.20;79.40
152;DHT22;68;48.792;9.164;2023-09-18T15:33:55;23.10;79.10
152;DHT22;68;48.792;9.164;2023-09-18T15:36:22;23.30;79.60
152;DHT22;68;48.792;9.164;2023-09-18T15:38:49;23.40;79.50
152;DHT22;68;48.792;9.164;2023-09-18T15:41:16;23.30;78.70
152;DHT22;68;48.792;9.164;2023-09-18T15:43:43;23.20;78.80
152;DHT22;68;48.792;9.164;2023-09-18T15:46:13;23.20;79.70
152;DHT22;68;48.792;9.164;2023-09-18T15:48:43;23.10;80.60
152;DHT22;68;48.792;9.164;2023-09-18T15:51:09;23.00;81.10
152;DHT22;68;48.792;9.164;2023-09-18T15:53:36;22.80;79.50
152;DHT22;68;48.792;9.164;2023-09-18T15:56:03;22.90;80.50
152;DHT22;68;48.792;9.164;2023-09-18T15:58:31;22.90;80.40
152;DHT22;68;48.792;9.164;2023-09-18T16:00:58;22.80;79.60
152;DHT22;68;48.792;9.164;2023-09-18T16:03:28;22.80;79.90
152;DHT22;68;48.792;9.164;2023-09-18T16:05:54;22.80;79.90
152;DHT22;68;48.792;9.164;2023-09-18T16:08:21;22.90;79.90
152;DHT22;68;48.792;9.164;2023-09-18T16:10:48;22.80;78.90
152;DHT22;68;48.792;9.164;2023-09-18T16:13:16;22.70;80.20
152;DHT22;68;48.792;9.164;2023-09-18T16:15:43;22.60;79.40
152;DHT22;68;48.792;9.164;2023-09-18T16:18:11;22.60;79.60
152;DHT22;68;48.792;9.164;2023-09-18T16:20:39;22.60;80.50
152;DHT22;68;48.792;9.164;2023-09-18T16:23:06;22.40;81.30
152;DHT22;68;48.792;9.164;2023-09-18T16:25:33;22.60;80.70
152;DHT22;68;48.792;9.164;2023-09-18T16:28:00;22.60;79.90
152;DHT22;68;48.792;9.164;2023-09-18T16:30:29;22.60;79.60
152;DHT22;68;48.792;9.164;2023-09-18T16:32:55;22.50;79.60
152;DHT22;68;48.792;9.164;2023-09-18T16:35:23;22.50;80.50
152;DHT22;68;48.792;9.164;2023-09-18T16:37:51;22.50;80.00
152;DHT22;68;48.792;9.164;2023-09-18T16:40:20;22.50;80.80
152;DHT22;68;48.792;9.164;2023-09-18T16:42:46;22.60;80.10
152;DHT22;68;48.792;9.164;2023-09-18T16:45:13;22.60;79.80
152;DHT22;68;48.792;9.164;2023-09-18T16:47:40;22.70;80.40
152;DHT22;68;48.792;9.164;2023-09-18T16:50:07;22.60;80.20
152;DHT22;68;48.792;9.164;2023-09-18T16:52:35;22.60;80.20
152;DHT22;68;48.792;9.164;2023-09-18T16:55:06;22.60;80.80
152;DHT22;68;48.792;9.164;2023-09-18T16:57:33;22.60;80.80